sensor_id;sensor_type;location;lat;lon;timestamp;pressure;altitude;pressure_sealevel;temperature;humidity
49689;BME280;70518;51.400;7.428;2024-01-07T00:00:26;156447.19;;;9.62;68.82
49689;BME280;70518;51.400;7.428;2024-01-07T00:02:52;156456.22;;;9.66;69.22
49689;BME280;70518;51.400;7.428;2024-01-07T00:05:17;156447.19;;;9.62;69.03
49689;BME280;70518;51.400;7.428;2024-01-07T00:07:42;156439.44;;;9.59;68.78
49689;BME280;70518;51.400;7.428;2024-01-07T00:10:07;156434.31;;;9.57;68.85
49689;BME280;70518;51.400;7.428;2024-01-07T00:12:34;156448.50;;;9.63;68.26
49689;BME280;70518;51.400;7.428;2024-01-07T00:15:00;156433.00;;;9.57;68.95
49689;BME280;70518;51.400;7.428;2024-01-07T00:17:25;156430.47;;;9.56;69.02
49689;BME280;70518;51.400;7.428;2024-01-07T00:19:50;156444.66;;;9.61;68.75
49689;BME280;70518;51.400;7.428;2024-01-07T00:22:15;156436.91;;;9.58;69.02
49689;BME280;70518;51.400;7.428;2024-01-07T00:24:41;156430.47;;;9.56;68.92
49689;BME280;70518;51.400;7.428;2024-01-07T00:27:06;156413.72;;;9.49;69.13
49689;BME280;70518;51.400;7.428;2024-01-07T00:29:33;156430.47;;;9.56;68.60
49689;BME280;70518;51.400;7.428;2024-01-07T00:32:00;156434.31;;;9.57;68.26
49689;BME280;70518;51.400;7.428;2024-01-07T00:34:25;156445.94;;;9.62;67.94
49689;BME280;70518;51.400;7.428;2024-01-07T00:36:50;156438.22;;;9.59;68.66
49689;BME280;70518;51.400;7.428;2024-01-07T00:39:15;156447.19;;;9.62;68.72
49689;BME280;70518;51.400;7.428;2024-01-07T00:41:40;156422.75;;;9.53;68.25
49689;BME280;70518;51.400;7.428;2024-01-07T00:44:05;156430.47;;;9.56;68.92
49689;BME280;70518;51.400;7.428;2024-01-07T00:46:31;156430.47;;;9.56;68.17
49689;BME280;70518;51.400;7.428;2024-01-07T00:48:56;156415.00;;;9.49;68.78
49689;BME280;70518;51.400;7.428;2024-01-07T00:51:21;156416.31;;;9.50;68.96
49689;BME280;70518;51.400;7.428;2024-01-07T00:53:46;156391.81;;;9.40;69.16
49689;BME280;70518;51.400;7.428;2024-01-07T00:56:11;156393.09;;;9.41;68.53
49689;BME280;70518;51.400;7.428;2024-01-07T00:58:37;156390.50;;;9.40;69.07
49689;BME280;70518;51.400;7.428;2024-01-07T01:01:02;156393.09;;;9.41;69.03
49689;BME280;70518;51.400;7.428;2024-01-07T01:03:27;156394.34;;;9.41;69.01
49689;BME280;70518;51.400;7.428;2024-01-07T01:05:53;156393.09;;;9.41;69.31
49689;BME280;70518;51.400;7.428;2024-01-07T01:08:18;156409.81;;;9.47;69.55
49689;BME280;70518;51.400;7.428;2024-01-07T01:10:43;156415.00;;;9.49;69.40
49689;BME280;70518;51.400;7.428;2024-01-07T01:13:08;156413.72;;;9.49;69.40
49689;BME280;70518;51.400;7.428;2024-01-07T01:15:34;156415.00;;;9.49;68.79
49689;BME280;70518;51.400;7.428;2024-01-07T01:17:59;156399.53;;;9.43;68.50
49689;BME280;70518;51.400;7.428;2024-01-07T01:20:24;156400.84;;;9.44;68.69
49689;BME280;70518;51.400;7.428;2024-01-07T01:22:49;156396.94;;;9.42;67.95
49689;BME280;70518;51.400;7.428;2024-01-07T01:25:15;156396.94;;;9.42;67.95
49689;BME280;70518;51.400;7.428;2024-01-07T01:27:40;156408.56;;;9.47;67.65
49689;BME280;70518;51.400;7.428;2024-01-07T01:30:05;156395.66;;;9.42;67.96
49689;BME280;70518;51.400;7.428;2024-01-07T01:32:31;156396.94;;;9.42;67.96
49689;BME280;70518;51.400;7.428;2024-01-07T01:34:56;156378.88;;;9.35;67.77
49689;BME280;70518;51.400;7.428;2024-01-07T01:37:21;156366.00;;;9.30;67.39
49689;BME280;70518;51.400;7.428;2024-01-07T01:39:46;156367.31;;;9.31;67.03
49689;BME280;70518;51.400;7.428;2024-01-07T01:42:12;156378.88;;;9.35;67.20
49689;BME280;70518;51.400;7.428;2024-01-07T01:44:37;156385.38;;;9.38;66.70
49689;BME280;70518;51.400;7.428;2024-01-07T01:47:03;156390.50;;;9.40;66.79
49689;BME280;70518;51.400;7.428;2024-01-07T01:49:28;156369.91;;;9.32;67.60
49689;BME280;70518;51.400;7.428;2024-01-07T01:51:54;156376.34;;;9.34;68.10
49689;BME280;70518;51.400;7.428;2024-01-07T01:54:19;156375.03;;;9.34;68.08
49689;BME280;70518;51.400;7.428;2024-01-07T01:56:45;156362.19;;;9.29;68.02
49689;BME280;70518;51.400;7.428;2024-01-07T01:59:11;156354.44;;;9.26;67.95
49689;BME280;70518;51.400;7.428;2024-01-07T02:01:37;156366.00;;;9.30;67.83
49689;BME280;70518;51.400;7.428;2024-01-07T02:04:02;156357.00;;;9.27;67.79
49689;BME280;70518;51.400;7.428;2024-01-07T02:06:27;156350.56;;;9.24;66.67
49689;BME280;70518;51.400;7.428;2024-01-07T02:08:53;156354.44;;;9.26;66.91
49689;BME280;70518;51.400;7.428;2024-01-07T02:11:19;156318.31;;;9.12;67.42
49689;BME280;70518;51.400;7.428;2024-01-07T02:13:44;156324.81;;;9.14;67.20
49689;BME280;70518;51.400;7.428;2024-01-07T02:16:09;156341.53;;;9.21;67.81
49689;BME280;70518;51.400;7.428;2024-01-07T02:18:35;156323.53;;;9.14;68.07
49689;BME280;70518;51.400;7.428;2024-01-07T02:21:00;156322.22;;;9.13;68.28
49689;BME280;70518;51.400;7.428;2024-01-07T02:23:25;156319.63;;;9.12;67.53
49689;BME280;70518;51.400;7.428;2024-01-07T02:25:51;156335.09;;;9.18;67.16
49689;BME280;70518;51.400;7.428;2024-01-07T02:28:16;156327.34;;;9.15;67.06
49689;BME280;70518;51.400;7.428;2024-01-07T02:30:41;156332.53;;;9.17;67.88
49689;BME280;70518;51.400;7.428;2024-01-07T02:33:06;156333.78;;;9.18;67.68
49689;BME280;70518;51.400;7.428;2024-01-07T02:35:31;156333.78;;;9.18;67.30
49689;BME280;70518;51.400;7.428;2024-01-07T02:37:57;156256.53;;;8.87;67.01
49689;BME280;70518;51.400;7.428;2024-01-07T02:40:22;156248.81;;;8.84;68.03
49689;BME280;70518;51.400;7.428;2024-01-07T02:42:47;156275.84;;;8.95;68.12
49689;BME280;70518;51.400;7.428;2024-01-07T02:45:12;156284.88;;;8.99;67.99
49689;BME280;70518;51.400;7.428;2024-01-07T02:47:38;156288.72;;;9.00;67.45
49689;BME280;70518;51.400;7.428;2024-01-07T02:50:03;156291.28;;;9.01;67.69
49689;BME280;70518;51.400;7.428;2024-01-07T02:52:28;156287.47;;;9.00;67.47
49689;BME280;70518;51.400;7.428;2024-01-07T02:54:53;156262.97;;;8.90;67.68
49689;BME280;70518;51.400;7.428;2024-01-07T02:57:19;156282.28;;;8.98;67.46
49689;BME280;70518;51.400;7.428;2024-01-07T02:59:44;156261.69;;;8.89;67.68
49689;BME280;70518;51.400;7.428;2024-01-07T03:02:09;156266.81;;;8.91;68.07
49689;BME280;70518;51.400;7.428;2024-01-07T03:04:34;156265.50;;;8.91;68.24
49689;BME280;70518;51.400;7.428;2024-01-07T03:06:59;156274.53;;;8.94;68.09
49689;BME280;70518;51.400;7.428;2024-01-07T03:09:24;156288.72;;;9.00;68.38
49689;BME280;70518;51.400;7.428;2024-01-07T03:11:50;156300.31;;;9.05;67.70
49689;BME280;70518;51.400;7.428;2024-01-07T03:14:15;156296.44;;;9.03;67.69
49689;BME280;70518;51.400;7.428;2024-01-07T03:16:42;156242.31;;;8.82;67.95
49689;BME280;70518;51.400;7.428;2024-01-07T03:19:08;156260.38;;;8.89;68.16
49689;BME280;70518;51.400;7.428;2024-01-07T03:21:33;156237.19;;;8.80;66.94
49689;BME280;70518;51.400;7.428;2024-01-07T03:23:58;156228.16;;;8.76;68.09
49689;BME280;70518;51.400;7.428;2024-01-07T03:26:24;156235.88;;;8.79;68.28
49689;BME280;70518;51.400;7.428;2024-01-07T03:28:49;156235.88;;;8.79;68.22
49689;BME280;70518;51.400;7.428;2024-01-07T03:31:15;156242.31;;;8.82;67.98
49689;BME280;70518;51.400;7.428;2024-01-07T03:33:41;156232.06;;;8.78;67.51
49689;BME280;70518;51.400;7.428;2024-01-07T03:36:07;156238.50;;;8.80;67.09
49689;BME280;70518;51.400;7.428;2024-01-07T03:38:33;156239.78;;;8.81;66.99
49689;BME280;70518;51.400;7.428;2024-01-07T03:40:58;156242.31;;;8.82;66.55
49689;BME280;70518;51.400;7.428;2024-01-07T03:43:23;156244.91;;;8.83;66.80
49689;BME280;70518;51.400;7.428;2024-01-07T03:45:48;156253.94;;;8.86;67.28
49689;BME280;70518;51.400;7.428;2024-01-07T03:48:14;156229.47;;;8.77;66.53
49689;BME280;70518;51.400;7.428;2024-01-07T03:50:39;156232.06;;;8.78;67.55
49689;BME280;70518;51.400;7.428;2024-01-07T03:53:05;156225.63;;;8.75;67.51
49689;BME280;70518;51.400;7.428;2024-01-07T03:55:30;156212.69;;;8.70;67.07
49689;BME280;70518;51.400;7.428;2024-01-07T03:57:55;156185.69;;;8.60;66.87
49689;BME280;70518;51.400;7.428;2024-01-07T04:00:20;156188.28;;;8.61;67.34
49689;BME280;70518;51.400;7.428;2024-01-07T04:02:45;156194.69;;;8.63;67.04
49689;BME280;70518;51.400;7.428;2024-01-07T04:05:10;156229.47;;;8.77;66.62
49689;BME280;70518;51.400;7.428;2024-01-07T04:07:37;156246.22;;;8.83;66.45
49689;BME280;70518;51.400;7.428;2024-01-07T04:10:03;156223.03;;;8.74;66.85
49689;BME280;70518;51.400;7.428;2024-01-07T04:12:28;156242.31;;;8.82;66.99
49689;BME280;70518;51.400;7.428;2024-01-07T04:14:53;156217.88;;;8.72;67.24
49689;BME280;70518;51.400;7.428;2024-01-07T04:17:18;156224.31;;;8.75;67.41
49689;BME280;70518;51.400;7.428;2024-01-07T04:19:43;156230.75;;;8.77;66.82
49689;BME280;70518;51.400;7.428;2024-01-07T04:22:09;156199.84;;;8.65;67.44
49689;BME280;70518;51.400;7.428;2024-01-07T04:24:34;156210.16;;;8.69;67.44
49689;BME280;70518;51.400;7.428;2024-01-07T04:26:59;156207.56;;;8.68;66.94
49689;BME280;70518;51.400;7.428;2024-01-07T04:29:24;156204.97;;;8.67;67.13
49689;BME280;70518;51.400;7.428;2024-01-07T04:31:49;156207.56;;;8.68;67.56
49689;BME280;70518;51.400;7.428;2024-01-07T04:34:15;156211.47;;;8.70;66.38
49689;BME280;70518;51.400;7.428;2024-01-07T04:36:40;156216.59;;;8.72;66.97
49689;BME280;70518;51.400;7.428;2024-01-07T04:39:05;156196.00;;;8.64;66.38
49689;BME280;70518;51.400;7.428;2024-01-07T04:41:30;156177.94;;;8.57;66.95
49689;BME280;70518;51.400;7.428;2024-01-07T04:43:55;156149.63;;;8.46;66.77
49689;BME280;70518;51.400;7.428;2024-01-07T04:46:20;156152.19;;;8.47;67.15
49689;BME280;70518;51.400;7.428;2024-01-07T04:48:46;156167.63;;;8.53;66.93
49689;BME280;70518;51.400;7.428;2024-01-07T04:51:11;156153.47;;;8.47;66.85
49689;BME280;70518;51.400;7.428;2024-01-07T04:53:36;156147.03;;;8.45;66.89
49689;BME280;70518;51.400;7.428;2024-01-07T04:56:02;156167.63;;;8.53;66.77
49689;BME280;70518;51.400;7.428;2024-01-07T04:58:27;156162.50;;;8.51;67.01
49689;BME280;70518;51.400;7.428;2024-01-07T05:00:52;156154.78;;;8.48;67.20
49689;BME280;70518;51.400;7.428;2024-01-07T05:03:18;156156.06;;;8.48;66.96
49689;BME280;70518;51.400;7.428;2024-01-07T05:05:43;156162.50;;;8.51;67.10
49689;BME280;70518;51.400;7.428;2024-01-07T05:08:08;156162.50;;;8.51;67.32
49689;BME280;70518;51.400;7.428;2024-01-07T05:10:33;156092.91;;;8.23;68.23
49689;BME280;70518;51.400;7.428;2024-01-07T05:12:58;156117.44;;;8.33;68.06
49689;BME280;70518;51.400;7.428;2024-01-07T05:15:24;156121.28;;;8.34;67.78
49689;BME280;70518;51.400;7.428;2024-01-07T05:17:49;156120.03;;;8.34;67.55
49689;BME280;70518;51.400;7.428;2024-01-07T05:20:17;156100.63;;;8.26;67.02
49689;BME280;70518;51.400;7.428;2024-01-07T05:22:42;156095.50;;;8.24;66.90
49689;BME280;70518;51.400;7.428;2024-01-07T05:25:07;156095.50;;;8.24;66.82
49689;BME280;70518;51.400;7.428;2024-01-07T05:27:33;156113.53;;;8.31;67.00
49689;BME280;70518;51.400;7.428;2024-01-07T05:29:58;156134.19;;;8.40;66.72
49689;BME280;70518;51.400;7.428;2024-01-07T05:32:23;156116.13;;;8.32;66.42
49689;BME280;70518;51.400;7.428;2024-01-07T05:34:49;156111.00;;;8.30;66.51
49689;BME280;70518;51.400;7.428;2024-01-07T05:37:14;156098.09;;;8.25;66.96
49689;BME280;70518;51.400;7.428;2024-01-07T05:39:39;156087.78;;;8.21;67.00
49689;BME280;70518;51.400;7.428;2024-01-07T05:42:04;156087.78;;;8.21;67.43
49689;BME280;70518;51.400;7.428;2024-01-07T05:44:29;156083.88;;;8.20;66.97
49689;BME280;70518;51.400;7.428;2024-01-07T05:46:55;156091.59;;;8.23;66.71
49689;BME280;70518;51.400;7.428;2024-01-07T05:49:20;156105.81;;;8.28;66.71
49689;BME280;70518;51.400;7.428;2024-01-07T05:51:45;156117.44;;;8.33;66.96
49689;BME280;70518;51.400;7.428;2024-01-07T05:54:10;156114.84;;;8.32;66.69
49689;BME280;70518;51.400;7.428;2024-01-07T05:56:39;156105.81;;;8.28;66.93
49689;BME280;70518;51.400;7.428;2024-01-07T05:59:05;156108.41;;;8.29;66.80
49689;BME280;70518;51.400;7.428;2024-01-07T06:01:30;156108.41;;;8.29;67.20
49689;BME280;70518;51.400;7.428;2024-01-07T06:03:56;156098.09;;;8.25;67.01
49689;BME280;70518;51.400;7.428;2024-01-07T06:06:21;156090.38;;;8.22;66.96
49689;BME280;70518;51.400;7.428;2024-01-07T06:08:46;156098.09;;;8.25;66.75
49689;BME280;70518;51.400;7.428;2024-01-07T06:11:11;156100.63;;;8.26;67.06
49689;BME280;70518;51.400;7.428;2024-01-07T06:13:40;156098.09;;;8.25;66.77
49689;BME280;70518;51.400;7.428;2024-01-07T06:16:05;156114.84;;;8.32;66.55
49689;BME280;70518;51.400;7.428;2024-01-07T06:18:31;156091.59;;;8.23;66.79
49689;BME280;70518;51.400;7.428;2024-01-07T06:20:56;156112.28;;;8.31;66.86
49689;BME280;70518;51.400;7.428;2024-01-07T06:23:21;156046.53;;;8.05;66.22
49689;BME280;70518;51.400;7.428;2024-01-07T06:25:46;156032.41;;;8.00;67.32
49689;BME280;70518;51.400;7.428;2024-01-07T06:28:11;156036.28;;;8.01;67.37
49689;BME280;70518;51.400;7.428;2024-01-07T06:30:37;156058.16;;;8.10;67.59
49689;BME280;70518;51.400;7.428;2024-01-07T06:33:02;156056.88;;;8.09;66.83
49689;BME280;70518;51.400;7.428;2024-01-07T06:35:27;156081.34;;;8.19;66.69
49689;BME280;70518;51.400;7.428;2024-01-07T06:37:52;156081.34;;;8.19;66.21
49689;BME280;70518;51.400;7.428;2024-01-07T06:40:18;156050.44;;;8.07;66.93
49689;BME280;70518;51.400;7.428;2024-01-07T06:42:43;156055.56;;;8.09;67.08
49689;BME280;70518;51.400;7.428;2024-01-07T06:45:09;156047.84;;;8.06;66.94
49689;BME280;70518;51.400;7.428;2024-01-07T06:47:34;156046.53;;;8.05;67.09
49689;BME280;70518;51.400;7.428;2024-01-07T06:50:00;156055.56;;;8.09;67.01
49689;BME280;70518;51.400;7.428;2024-01-07T06:52:25;156028.56;;;7.98;66.47
49689;BME280;70518;51.400;7.428;2024-01-07T06:54:50;156028.56;;;7.98;66.80
49689;BME280;70518;51.400;7.428;2024-01-07T06:57:15;156010.50;;;7.91;66.42
49689;BME280;70518;51.400;7.428;2024-01-07T06:59:40;156018.25;;;7.94;66.75
49689;BME280;70518;51.400;7.428;2024-01-07T07:02:06;156029.84;;;7.99;66.91
49689;BME280;70518;51.400;7.428;2024-01-07T07:04:31;156033.69;;;8.00;66.70
49689;BME280;70518;51.400;7.428;2024-01-07T07:06:56;156037.53;;;8.02;66.50
49689;BME280;70518;51.400;7.428;2024-01-07T07:09:22;156046.53;;;8.05;66.91
49689;BME280;70518;51.400;7.428;2024-01-07T07:11:47;156038.81;;;8.02;66.82
49689;BME280;70518;51.400;7.428;2024-01-07T07:14:13;156041.41;;;8.03;65.84
49689;BME280;70518;51.400;7.428;2024-01-07T07:16:38;156034.97;;;8.01;65.39
49689;BME280;70518;51.400;7.428;2024-01-07T07:19:03;155983.50;;;7.80;65.48
49689;BME280;70518;51.400;7.428;2024-01-07T07:21:28;156004.09;;;7.89;64.85
49689;BME280;70518;51.400;7.428;2024-01-07T07:23:53;156001.50;;;7.88;64.71
49689;BME280;70518;51.400;7.428;2024-01-07T07:26:19;155993.78;;;7.84;64.89
49689;BME280;70518;51.400;7.428;2024-01-07T07:28:44;156018.25;;;7.94;64.68
49689;BME280;70518;51.400;7.428;2024-01-07T07:31:10;156018.25;;;7.94;64.78
49689;BME280;70518;51.400;7.428;2024-01-07T07:33:38;156025.97;;;7.97;64.68
49689;BME280;70518;51.400;7.428;2024-01-07T07:36:03;156020.84;;;7.95;64.78
49689;BME280;70518;51.400;7.428;2024-01-07T07:38:28;156027.25;;;7.98;64.83
49689;BME280;70518;51.400;7.428;2024-01-07T07:40:53;156038.81;;;8.02;64.41
49689;BME280;70518;51.400;7.428;2024-01-07T07:43:19;156049.13;;;8.06;64.03
49689;BME280;70518;51.400;7.428;2024-01-07T07:45:45;156064.59;;;8.12;64.48
49689;BME280;70518;51.400;7.428;2024-01-07T07:48:10;156037.53;;;8.02;64.15
49689;BME280;70518;51.400;7.428;2024-01-07T07:50:36;156060.69;;;8.11;64.25
49689;BME280;70518;51.400;7.428;2024-01-07T07:53:01;155995.06;;;7.85;63.42
49689;BME280;70518;51.400;7.428;2024-01-07T07:55:26;156025.97;;;7.97;63.43
49689;BME280;70518;51.400;7.428;2024-01-07T07:57:52;156027.25;;;7.98;63.56
49689;BME280;70518;51.400;7.428;2024-01-07T08:00:17;156020.84;;;7.95;64.08
49689;BME280;70518;51.400;7.428;2024-01-07T08:02:42;155970.59;;;7.75;64.87
49689;BME280;70518;51.400;7.428;2024-01-07T08:05:07;155957.75;;;7.70;64.46
49689;BME280;70518;51.400;7.428;2024-01-07T08:07:33;155965.47;;;7.73;64.91
49689;BME280;70518;51.400;7.428;2024-01-07T08:09:58;155962.88;;;7.72;64.90
49689;BME280;70518;51.400;7.428;2024-01-07T08:12:23;155961.63;;;7.72;64.28
49689;BME280;70518;51.400;7.428;2024-01-07T08:14:48;155944.88;;;7.65;64.49
49689;BME280;70518;51.400;7.428;2024-01-07T08:17:14;155955.16;;;7.69;64.84
49689;BME280;70518;51.400;7.428;2024-01-07T08:19:39;155956.44;;;7.70;64.91
49689;BME280;70518;51.400;7.428;2024-01-07T08:22:05;155965.47;;;7.73;64.45
49689;BME280;70518;51.400;7.428;2024-01-07T08:24:30;155973.19;;;7.76;64.12
49689;BME280;70518;51.400;7.428;2024-01-07T08:26:55;155969.34;;;7.75;63.50
49689;BME280;70518;51.400;7.428;2024-01-07T08:29:20;155956.44;;;7.70;63.01
49689;BME280;70518;51.400;7.428;2024-01-07T08:31:46;155974.50;;;7.77;63.55
49689;BME280;70518;51.400;7.428;2024-01-07T08:34:11;155986.03;;;7.81;63.64
49689;BME280;70518;51.400;7.428;2024-01-07T08:36:38;156001.50;;;7.88;63.99
49689;BME280;70518;51.400;7.428;2024-01-07T08:39:03;156002.78;;;7.88;64.30
49689;BME280;70518;51.400;7.428;2024-01-07T08:41:28;155959.03;;;7.71;64.40
49689;BME280;70518;51.400;7.428;2024-01-07T08:43:53;155953.91;;;7.69;64.56
49689;BME280;70518;51.400;7.428;2024-01-07T08:46:22;155978.31;;;7.78;64.27
49689;BME280;70518;51.400;7.428;2024-01-07T08:48:47;155952.63;;;7.68;63.11
49689;BME280;70518;51.400;7.428;2024-01-07T08:51:12;155987.34;;;7.82;63.21
49689;BME280;70518;51.400;7.428;2024-01-07T08:53:38;155956.44;;;7.70;63.43
49689;BME280;70518;51.400;7.428;2024-01-07T08:56:04;155935.88;;;7.62;64.02
49689;BME280;70518;51.400;7.428;2024-01-07T08:58:29;155906.28;;;7.50;63.88
49689;BME280;70518;51.400;7.428;2024-01-07T09:00:54;155907.56;;;7.51;63.77
49689;BME280;70518;51.400;7.428;2024-01-07T09:03:20;155898.56;;;7.47;64.10
49689;BME280;70518;51.400;7.428;2024-01-07T09:05:45;155908.81;;;7.51;63.99
49689;BME280;70518;51.400;7.428;2024-01-07T09:08:10;155876.69;;;7.39;63.72
49689;BME280;70518;51.400;7.428;2024-01-07T09:10:36;155892.13;;;7.45;63.37
49689;BME280;70518;51.400;7.428;2024-01-07T09:13:02;155861.25;;;7.33;63.21
49689;BME280;70518;51.400;7.428;2024-01-07T09:15:28;155861.25;;;7.33;63.16
49689;BME280;70518;51.400;7.428;2024-01-07T09:17:53;155881.81;;;7.41;62.99
49689;BME280;70518;51.400;7.428;2024-01-07T09:20:18;155856.06;;;7.31;63.59
49689;BME280;70518;51.400;7.428;2024-01-07T09:22:44;155877.97;;;7.39;62.98
49689;BME280;70518;51.400;7.428;2024-01-07T09:25:10;155865.06;;;7.34;62.68
49689;BME280;70518;51.400;7.428;2024-01-07T09:27:36;155879.22;;;7.40;63.04
49689;BME280;70518;51.400;7.428;2024-01-07T09:30:01;155856.06;;;7.31;62.37
49689;BME280;70518;51.400;7.428;2024-01-07T09:32:27;155871.50;;;7.37;62.21
49689;BME280;70518;51.400;7.428;2024-01-07T09:34:52;155799.47;;;7.08;62.34
49689;BME280;70518;51.400;7.428;2024-01-07T09:37:18;155757.03;;;6.92;63.17
49689;BME280;70518;51.400;7.428;2024-01-07T09:39:43;155793.06;;;7.06;61.85
49689;BME280;70518;51.400;7.428;2024-01-07T09:42:12;155768.59;;;6.96;61.84
49689;BME280;70518;51.400;7.428;2024-01-07T09:44:38;155789.16;;;7.04;61.71
49689;BME280;70518;51.400;7.428;2024-01-07T09:47:04;155769.91;;;6.97;61.75
49689;BME280;70518;51.400;7.428;2024-01-07T09:49:30;155820.03;;;7.16;61.38
49689;BME280;70518;51.400;7.428;2024-01-07T09:51:56;155746.75;;;6.88;61.57
49689;BME280;70518;51.400;7.428;2024-01-07T09:54:24;155804.59;;;7.10;61.15
49689;BME280;70518;51.400;7.428;2024-01-07T09:56:50;155812.31;;;7.13;61.44
49689;BME280;70518;51.400;7.428;2024-01-07T09:59:18;155776.31;;;6.99;60.79
49689;BME280;70518;51.400;7.428;2024-01-07T10:01:45;155730.00;;;6.81;61.02
49689;BME280;70518;51.400;7.428;2024-01-07T10:04:10;155776.31;;;6.99;60.86
49689;BME280;70518;51.400;7.428;2024-01-07T10:06:36;155791.75;;;7.05;60.81
49689;BME280;70518;51.400;7.428;2024-01-07T10:09:01;155795.59;;;7.07;61.21
49689;BME280;70518;51.400;7.428;2024-01-07T10:11:26;155795.59;;;7.07;61.16
49689;BME280;70518;51.400;7.428;2024-01-07T10:13:51;155775.03;;;6.99;61.75
49689;BME280;70518;51.400;7.428;2024-01-07T10:16:17;155778.91;;;7.00;60.59
49689;BME280;70518;51.400;7.428;2024-01-07T10:18:42;155800.78;;;7.09;60.66
49689;BME280;70518;51.400;7.428;2024-01-07T10:21:07;155785.34;;;7.03;59.93
49689;BME280;70518;51.400;7.428;2024-01-07T10:23:32;155750.56;;;6.89;60.69
49689;BME280;70518;51.400;7.428;2024-01-07T10:25:58;155714.56;;;6.75;60.79
49689;BME280;70518;51.400;7.428;2024-01-07T10:28:23;155768.59;;;6.96;60.88
49689;BME280;70518;51.400;7.428;2024-01-07T10:30:48;155760.88;;;6.93;60.58
49689;BME280;70518;51.400;7.428;2024-01-07T10:33:14;155732.59;;;6.82;60.38
49689;BME280;70518;51.400;7.428;2024-01-07T10:35:41;155730.00;;;6.81;60.28
49689;BME280;70518;51.400;7.428;2024-01-07T10:38:11;155711.97;;;6.74;59.92
49689;BME280;70518;51.400;7.428;2024-01-07T10:40:36;155742.84;;;6.86;60.29
49689;BME280;70518;51.400;7.428;2024-01-07T10:43:03;155727.41;;;6.80;59.43
49689;BME280;70518;51.400;7.428;2024-01-07T10:45:29;155750.56;;;6.89;59.95
49689;BME280;70518;51.400;7.428;2024-01-07T10:47:56;155748.03;;;6.88;59.85
49689;BME280;70518;51.400;7.428;2024-01-07T10:50:24;155722.28;;;6.78;59.68
49689;BME280;70518;51.400;7.428;2024-01-07T10:52:58;155748.03;;;6.88;59.46
49689;BME280;70518;51.400;7.428;2024-01-07T10:55:25;155760.88;;;6.93;59.59
49689;BME280;70518;51.400;7.428;2024-01-07T10:57:51;155731.31;;;6.82;59.53
49689;BME280;70518;51.400;7.428;2024-01-07T11:00:18;155753.16;;;6.90;60.25
49689;BME280;70518;51.400;7.428;2024-01-07T11:02:49;155852.22;;;7.29;67.36
49689;BME280;70518;51.400;7.428;2024-01-07T11:08:19;155926.84;;;7.58;61.39
49689;BME280;70518;51.400;7.428;2024-01-07T11:10:49;155858.66;;;7.32;59.05
49689;BME280;70518;51.400;7.428;2024-01-07T11:16:08;155835.50;;;7.22;57.38
49689;BME280;70518;51.400;7.428;2024-01-07T11:18:37;155836.78;;;7.23;57.86
49689;BME280;70518;51.400;7.428;2024-01-07T11:21:03;155796.88;;;7.07;57.84
49689;BME280;70518;51.400;7.428;2024-01-07T11:23:35;155768.59;;;6.96;57.84
49689;BME280;70518;51.400;7.428;2024-01-07T11:26:05;155753.16;;;6.90;57.96
49689;BME280;70518;51.400;7.428;2024-01-07T11:31:14;155624.56;;;6.40;58.80
49689;BME280;70518;51.400;7.428;2024-01-07T11:33:49;155583.38;;;6.24;58.72
49689;BME280;70518;51.400;7.428;2024-01-07T11:36:15;155740.31;;;6.85;57.38
49689;BME280;70518;51.400;7.428;2024-01-07T11:38:41;155715.88;;;6.76;56.74
49689;BME280;70518;51.400;7.428;2024-01-07T11:41:07;155732.59;;;6.82;56.48
49689;BME280;70518;51.400;7.428;2024-01-07T11:43:33;155717.16;;;6.76;56.93
49689;BME280;70518;51.400;7.428;2024-01-07T11:45:59;155766.00;;;6.95;55.85
49689;BME280;70518;51.400;7.428;2024-01-07T11:48:24;155757.03;;;6.92;55.58
49689;BME280;70518;51.400;7.428;2024-01-07T11:50:50;155740.31;;;6.85;55.24
49689;BME280;70518;51.400;7.428;2024-01-07T11:53:15;155699.13;;;6.69;55.59
49689;BME280;70518;51.400;7.428;2024-01-07T11:55:41;155709.44;;;6.73;55.31
49689;BME280;70518;51.400;7.428;2024-01-07T11:58:06;155654.13;;;6.51;55.12
49689;BME280;70518;51.400;7.428;2024-01-07T12:00:32;155647.69;;;6.49;54.93
49689;BME280;70518;51.400;7.428;2024-01-07T12:02:59;155628.44;;;6.41;54.95
49689;BME280;70518;51.400;7.428;2024-01-07T12:05:24;155654.13;;;6.51;55.11
49689;BME280;70518;51.400;7.428;2024-01-07T12:07:49;155646.41;;;6.48;54.71
49689;BME280;70518;51.400;7.428;2024-01-07T12:10:14;155679.88;;;6.61;54.86
49689;BME280;70518;51.400;7.428;2024-01-07T12:12:40;155636.16;;;6.44;54.36
49689;BME280;70518;51.400;7.428;2024-01-07T12:15:07;155666.97;;;6.56;54.22
49689;BME280;70518;51.400;7.428;2024-01-07T12:17:32;155620.72;;;6.38;54.95
49689;BME280;70518;51.400;7.428;2024-01-07T12:19:58;155651.53;;;6.50;54.73
49689;BME280;70518;51.400;7.428;2024-01-07T12:22:24;155668.25;;;6.57;54.17
49689;BME280;70518;51.400;7.428;2024-01-07T12:24:59;155638.69;;;6.45;53.86
49689;BME280;70518;51.400;7.428;2024-01-07T12:27:24;155656.72;;;6.52;53.62
49689;BME280;70518;51.400;7.428;2024-01-07T12:29:54;155634.84;;;6.44;53.77
49689;BME280;70518;51.400;7.428;2024-01-07T12:32:19;155663.13;;;6.55;53.71
49689;BME280;70518;51.400;7.428;2024-01-07T12:34:44;155658.00;;;6.53;53.19
49689;BME280;70518;51.400;7.428;2024-01-07T12:37:12;155610.41;;;6.34;52.76
49689;BME280;70518;51.400;7.428;2024-01-07T12:39:38;155621.97;;;6.39;53.46
49689;BME280;70518;51.400;7.428;2024-01-07T12:42:03;155625.84;;;6.40;53.28
49689;BME280;70518;51.400;7.428;2024-01-07T12:44:28;155589.84;;;6.26;53.52
49689;BME280;70518;51.400;7.428;2024-01-07T12:46:53;155601.41;;;6.31;52.79
49689;BME280;70518;51.400;7.428;2024-01-07T12:49:19;155609.13;;;6.34;53.22
49689;BME280;70518;51.400;7.428;2024-01-07T12:51:44;155621.97;;;6.39;52.77
49689;BME280;70518;51.400;7.428;2024-01-07T12:54:09;155565.41;;;6.17;53.20
49689;BME280;70518;51.400;7.428;2024-01-07T12:56:35;155542.28;;;6.07;53.80
49689;BME280;70518;51.400;7.428;2024-01-07T12:59:01;155604.00;;;6.32;52.97